Murray, IA (50174)

6:12 PM CST on February 28, 2015 (GMT -0600)
IADOT Osceola (I-35) | Change Station
CLOSE
Current Station
Personal Weather Station
Location: Osceola, IA
Elevation: 1095 ft
Nearby Weather Stations

Elev 1095 ft 41.03 °N, 93.80 °W | Updated 49 minutes ago

Overcast
Overcast
23 °F
Feels Like 17 °F
N
5
Wind Variable Wind from South
Gusts 7.0 mph

Today
High -- | Low -- °F
--% Chance of Precip.
Yesterday
High -- | Low -- °F
Precip. -- in
6:51 AM 6:05 PM
Waxing Gibbous, 81% visible
Pressure 30.37 in
Visibility 4.0 miles
Clouds Scattered Clouds 2300 ft
Windchill 17 °F
Dew Point 19 °F
Humidity 84%
Rainfall -999.00 in
Snow Depth Not available.
UV 0 out of 12
Pollen .50 out of 12
Air Quality Not available.
Flu Activity Not available.
METAR KI75 282355Z AUTO 13004KT 4SM -SN SCT023 M06/M08 A3037 RMK AO2 T10601076 11043 21060

More Conditions Fewer Conditions

Pressure 30.37 in
Visibility 4.0 miles
Clouds Scattered Clouds 2300 ft
Windchill 17 °F
Dew Point 19 °F
Humidity 84%
Rainfall -999.00 in
Snow Depth Not available.
UV 0 out of 12
Pollen .50 out of 12
Air Quality Not available.
Flu Activity Not available.
METAR KI75 282355Z AUTO 13004KT 4SM -SN SCT023 M06/M08 A3037 RMK AO2 T10601076 11043 21060

More Conditions Fewer Conditions

10-Day Weather Forecast

Almanac

Astronomy

Feb. 28, 2015 Rise Set
Actual Time
Civil Twilight
Nautical Twilight
Astronomical Twilight
Moon
Length of Visible Light
Length of Day
Tomorrow will be .
, % of the Moon is Illuminated

Today's Extremes

State Highs State Lows

Community

WunderPhotos

Upload Photos

1,801,176 photos uploaded!

WunderBlogs® & News

Nearby

Air Quality

  Air Quality AQ Index Pollutant
Not available.

Snow Depth

Station Depth Elevation

Earthquake Activity

City Distance Mag. Time & Date
Minimum magnitude displayed is 2.5.

Coastal Water Temperatures

Place Temperature

Nearby Weather Stations